createdAt,value
2022-08-25T00:01:42.914Z,9.63
2022-08-25T00:04:12.914Z,9.30
2022-08-25T00:06:43.039Z,9.50
2022-08-25T00:09:12.727Z,15.23
2022-08-25T00:11:40.809Z,10.83
2022-08-25T00:14:13.415Z,9.50
2022-08-25T00:16:40.706Z,8.97
2022-08-25T00:19:15.027Z,9.90
2022-08-25T00:21:42.963Z,10.37
2022-08-25T00:24:11.760Z,9.10
2022-08-25T00:26:41.364Z,12.10
2022-08-25T00:29:09.187Z,10.27
2022-08-25T00:31:37.726Z,10.90
2022-08-25T00:34:08.549Z,9.63
2022-08-25T00:36:35.986Z,9.93
2022-08-25T00:39:04.399Z,11.07
2022-08-25T00:41:31.617Z,9.10
2022-08-25T00:44:04.908Z,12.23
2022-08-25T00:46:38.394Z,8.47
2022-08-25T00:49:24.867Z,8.83
2022-08-25T00:52:13.598Z,8.50
2022-08-25T00:54:49.771Z,10.20
2022-08-25T00:57:34.508Z,10.07
2022-08-25T01:00:10.798Z,12.60
2022-08-25T01:02:38.731Z,11.53
2022-08-25T01:05:06.441Z,10.70
2022-08-25T01:07:33.595Z,9.27
2022-08-25T01:10:01.266Z,10.30
2022-08-25T01:12:28.358Z,11.37
2022-08-25T01:14:56.619Z,12.70
2022-08-25T01:17:28.066Z,10.67
2022-08-25T01:19:55.810Z,10.60
2022-08-25T01:22:22.927Z,11.87
2022-08-25T01:25:01.740Z,11.40
2022-08-25T01:27:28.650Z,10.33
2022-08-25T01:29:57.888Z,10.77
2022-08-25T01:32:25.234Z,9.10
2022-08-25T01:34:52.178Z,10.80
2022-08-25T01:37:19.277Z,13.00
2022-08-25T01:39:46.557Z,9.30
2022-08-25T01:42:19.100Z,11.17
2022-08-25T01:44:47.144Z,11.00
2022-08-25T01:47:15.195Z,10.47
2022-08-25T01:49:42.484Z,9.13
2022-08-25T01:52:28.114Z,11.40
2022-08-25T01:54:54.993Z,9.60
2022-08-25T01:57:22.364Z,12.63
2022-08-25T01:59:49.383Z,9.83
2022-08-25T02:02:18.234Z,9.13
2022-08-25T02:04:45.566Z,11.73
2022-08-25T02:07:15.558Z,12.30
2022-08-25T02:09:42.516Z,11.13
2022-08-25T02:12:09.624Z,10.87
2022-08-25T02:14:37.763Z,10.10
2022-08-25T02:17:05.702Z,10.10
2022-08-25T02:19:33.284Z,11.77
2022-08-25T02:22:00.620Z,13.23
2022-08-25T02:24:28.222Z,13.57
2022-08-25T02:26:55.401Z,14.93
2022-08-25T02:29:22.776Z,12.40
2022-08-25T02:31:49.795Z,11.93
2022-08-25T02:34:16.966Z,12.53
2022-08-25T02:36:44.079Z,12.97
2022-08-25T02:39:12.542Z,12.30
2022-08-25T02:41:39.949Z,14.10
2022-08-25T02:44:08.173Z,11.43
2022-08-25T02:46:35.887Z,12.87
2022-08-25T02:49:03.136Z,14.67
2022-08-25T02:51:30.635Z,12.57
2022-08-25T02:53:59.192Z,11.70
2022-08-25T02:56:26.210Z,10.90
2022-08-25T02:58:53.217Z,13.47
2022-08-25T03:01:20.715Z,12.53
2022-08-25T03:03:49.870Z,10.20
2022-08-25T03:06:19.928Z,12.93
2022-08-25T03:08:47.092Z,12.87
2022-08-25T03:11:13.991Z,15.37
2022-08-25T03:13:41.578Z,12.73
2022-08-25T03:16:11.449Z,13.60
2022-08-25T03:18:41.644Z,14.07
2022-08-25T03:21:11.519Z,13.90
2022-08-25T03:23:40.365Z,11.03
2022-08-25T03:26:26.389Z,13.43
2022-08-25T03:28:55.424Z,12.90
2022-08-25T03:31:23.641Z,13.87
2022-08-25T03:33:50.566Z,15.13
2022-08-25T03:36:17.551Z,13.13
2022-08-25T03:38:44.396Z,14.10
2022-08-25T03:41:21.387Z,12.03
2022-08-25T03:43:49.008Z,13.27
2022-08-25T03:46:20.616Z,14.90
2022-08-25T03:48:48.505Z,11.80
2022-08-25T03:51:27.780Z,13.30
2022-08-25T03:53:55.326Z,13.97
2022-08-25T03:56:22.724Z,13.67
2022-08-25T03:58:51.344Z,13.70
2022-08-25T04:01:18.426Z,14.43
2022-08-25T04:03:46.152Z,12.17
2022-08-25T04:06:15.234Z,16.13
2022-08-25T04:08:42.283Z,14.77
2022-08-25T04:11:10.516Z,15.13
2022-08-25T04:13:37.531Z,13.57
2022-08-25T04:16:11.807Z,18.13
2022-08-25T04:18:39.067Z,13.10
2022-08-25T04:21:08.996Z,13.63
2022-08-25T04:23:41.908Z,15.30
2022-08-25T04:26:19.573Z,16.07
2022-08-25T04:28:46.763Z,15.43
2022-08-25T04:31:15.573Z,16.50
2022-08-25T04:33:42.971Z,14.27
2022-08-25T04:36:12.490Z,14.13
2022-08-25T04:38:41.263Z,16.00
2022-08-25T04:41:12.050Z,16.10
2022-08-25T04:43:40.541Z,14.17
2022-08-25T04:46:12.348Z,17.53
2022-08-25T04:48:40.274Z,15.83
2022-08-25T04:51:10.651Z,14.17
2022-08-25T04:53:38.389Z,21.60
2022-08-25T04:56:11.525Z,12.97
2022-08-25T04:58:39.199Z,19.60
2022-08-25T05:01:12.400Z,12.17
2022-08-25T05:03:39.392Z,15.93
2022-08-25T05:06:06.663Z,12.17
2022-08-25T05:08:34.641Z,13.70
2022-08-25T05:11:09.700Z,14.23
2022-08-25T05:13:37.456Z,11.57
2022-08-25T05:16:05.406Z,11.77
2022-08-25T05:18:36.638Z,13.17
2022-08-25T05:21:12.862Z,12.10
2022-08-25T05:23:40.461Z,14.00
2022-08-25T05:26:22.421Z,14.13
2022-08-25T05:28:52.972Z,12.20
2022-08-25T05:31:21.746Z,11.33
2022-08-25T05:33:48.631Z,14.83
2022-08-25T05:36:17.232Z,12.00
2022-08-25T05:38:44.522Z,14.97
2022-08-25T05:41:16.277Z,14.70
2022-08-25T05:43:44.843Z,13.73
2022-08-25T05:46:13.310Z,16.70
2022-08-25T05:48:40.260Z,15.97
2022-08-25T05:51:10.339Z,18.23
2022-08-25T05:53:39.682Z,16.33
2022-08-25T05:56:07.063Z,21.67
2022-08-25T05:58:34.183Z,21.13
2022-08-25T06:01:19.896Z,22.77
2022-08-25T06:03:47.822Z,27.80
2022-08-25T06:06:16.104Z,24.40
2022-08-25T06:08:44.425Z,24.10
2022-08-25T06:11:12.682Z,29.73
2022-08-25T06:13:40.634Z,28.10
2022-08-25T06:16:07.704Z,28.77
2022-08-25T06:18:34.646Z,30.40
2022-08-25T06:21:10.039Z,31.23
2022-08-25T06:23:38.191Z,32.70
2022-08-25T06:26:05.385Z,32.87
2022-08-25T06:28:32.313Z,38.53
2022-08-25T06:31:00.721Z,34.70
2022-08-25T06:33:27.803Z,36.70
2022-08-25T06:35:58.650Z,37.90
2022-08-25T06:38:26.981Z,33.53
2022-08-25T06:40:54.234Z,35.97
2022-08-25T06:43:21.578Z,36.57
2022-08-25T06:45:48.963Z,35.33
2022-08-25T06:48:16.319Z,36.53
2022-08-25T06:50:44.664Z,32.67
2022-08-25T06:53:11.894Z,31.67
2022-08-25T06:55:39.084Z,31.07
2022-08-25T06:58:06.570Z,30.10
2022-08-25T07:00:38.633Z,31.97
2022-08-25T07:03:05.632Z,29.03
2022-08-25T07:05:43.437Z,30.63
2022-08-25T07:08:11.881Z,29.33
2022-08-25T07:10:39.112Z,28.27
2022-08-25T07:13:06.007Z,30.80
2022-08-25T07:15:32.899Z,28.80
2022-08-25T07:17:59.794Z,30.60
2022-08-25T07:20:26.735Z,44.20
2022-08-25T07:22:54.342Z,67.67
2022-08-25T07:25:21.390Z,27.87
2022-08-25T07:27:48.364Z,27.20
2022-08-25T07:30:18.096Z,27.07
2022-08-25T07:32:45.024Z,23.90
2022-08-25T07:35:15.326Z,23.90
2022-08-25T07:37:49.174Z,24.87
2022-08-25T07:40:22.623Z,20.43
2022-08-25T07:42:52.198Z,23.10
2022-08-25T07:45:21.221Z,24.50
2022-08-25T07:47:51.563Z,22.77
2022-08-25T07:50:19.202Z,22.87
2022-08-25T07:52:52.163Z,25.23
2022-08-25T07:55:21.941Z,21.27
2022-08-25T07:57:50.947Z,24.63
2022-08-25T08:00:22.905Z,21.27
2022-08-25T08:02:51.578Z,23.20
2022-08-25T08:05:18.534Z,22.50
2022-08-25T08:07:45.442Z,23.70
2022-08-25T08:10:53.454Z,27.40
2022-08-25T08:13:02.680Z,21.97
2022-08-25T08:15:30.308Z,23.33
2022-08-25T08:17:58.717Z,23.27
2022-08-25T08:20:26.831Z,23.80
2022-08-25T08:22:54.181Z,24.03
2022-08-25T08:25:21.517Z,25.30
2022-08-25T08:27:54.855Z,23.43
2022-08-25T08:30:26.065Z,25.43
2022-08-25T08:33:11.870Z,23.40
2022-08-25T08:35:40.264Z,29.47
2022-08-25T08:38:14.760Z,25.43
2022-08-25T08:44:46.384Z,24.83
2022-08-25T08:47:37.658Z,23.90
2022-08-25T08:50:32.326Z,23.20
2022-08-25T08:53:22.130Z,19.80
2022-08-25T08:55:53.501Z,21.63
2022-08-25T08:58:59.002Z,21.80
2022-08-25T09:01:34.363Z,19.27
2022-08-25T09:04:24.378Z,19.20
2022-08-25T09:06:52.006Z,20.80
2022-08-25T09:09:30.405Z,20.53
2022-08-25T09:12:36.728Z,19.47
2022-08-25T09:15:25.482Z,20.27
2022-08-25T09:18:18.186Z,19.17
2022-08-25T09:21:12.163Z,17.13
2022-08-25T09:23:53.600Z,18.13
2022-08-25T09:26:36.179Z,15.80
2022-08-25T09:29:16.296Z,15.73
2022-08-25T09:31:44.823Z,16.13
2022-08-25T09:34:24.829Z,16.97
2022-08-25T09:36:53.379Z,16.00
2022-08-25T09:39:21.489Z,16.03
2022-08-25T09:41:56.426Z,15.87
2022-08-25T09:44:38.925Z,17.53
2022-08-25T09:47:20.511Z,13.67
2022-08-25T09:50:01.797Z,15.93
2022-08-25T09:52:36.036Z,15.00
2022-08-25T09:55:05.878Z,12.60
2022-08-25T09:57:46.042Z,13.77
2022-08-25T10:00:29.674Z,14.13
2022-08-25T10:03:22.631Z,12.90
2022-08-25T10:06:00.840Z,13.57
2022-08-25T10:08:59.925Z,12.80
2022-08-25T10:11:48.316Z,9.67
2022-08-25T10:14:19.820Z,13.67
2022-08-25T10:16:48.779Z,14.20
2022-08-25T10:19:21.897Z,11.53
2022-08-25T10:22:02.436Z,10.23
2022-08-25T10:24:29.549Z,9.27
2022-08-25T10:27:10.024Z,10.93
2022-08-25T10:29:55.266Z,11.90
2022-08-25T10:32:43.922Z,11.07
2022-08-25T10:35:23.846Z,10.43
2022-08-25T10:37:56.402Z,10.70
2022-08-25T10:40:23.496Z,10.10
2022-08-25T10:43:10.174Z,13.10
2022-08-25T10:45:59.444Z,13.57
2022-08-25T10:48:55.989Z,14.07
2022-08-25T10:51:47.240Z,11.27
2022-08-25T10:54:47.659Z,14.73
2022-08-25T10:57:36.182Z,11.33
2022-08-25T11:00:12.830Z,13.60
2022-08-25T11:02:52.369Z,13.53
2022-08-25T11:05:43.558Z,12.97
2022-08-25T11:08:14.433Z,14.13
2022-08-25T11:10:56.646Z,11.23
2022-08-25T11:13:33.834Z,12.53
2022-08-25T11:16:17.494Z,13.73
2022-08-25T11:18:57.870Z,10.90
2022-08-25T11:21:43.044Z,9.80
2022-08-25T11:24:48.210Z,14.00
2022-08-25T11:27:38.429Z,14.50
2022-08-25T11:30:10.872Z,11.93
2022-08-25T11:32:39.391Z,15.53
2022-08-25T11:35:12.329Z,12.73
2022-08-25T11:38:24.074Z,12.73
2022-08-25T11:41:00.126Z,10.97
2022-08-25T11:44:06.691Z,12.90
2022-08-25T11:47:00.296Z,13.77
2022-08-25T11:49:42.597Z,14.70
2022-08-25T11:52:31.730Z,13.67
2022-08-25T11:55:12.063Z,11.37
2022-08-25T11:57:40.023Z,18.40
2022-08-25T12:00:32.047Z,15.13
2022-08-25T12:03:01.599Z,12.60
2022-08-25T12:05:28.618Z,14.13
2022-08-25T12:08:25.658Z,12.67
2022-08-25T12:10:52.613Z,12.03
2022-08-25T12:13:39.401Z,13.20
2022-08-25T12:16:06.956Z,13.77
2022-08-25T12:18:33.799Z,12.20
2022-08-25T12:21:02.250Z,10.90
2022-08-25T12:24:12.881Z,12.23
2022-08-25T12:26:48.764Z,13.10
2022-08-25T12:29:22.428Z,16.40
2022-08-25T12:32:04.536Z,16.93
2022-08-25T12:34:37.960Z,14.93
2022-08-25T12:37:18.667Z,15.03
2022-08-25T12:39:51.822Z,13.40
2022-08-25T12:42:35.168Z,14.27
2022-08-25T12:45:26.339Z,15.67
2022-08-25T12:47:54.636Z,13.30
2022-08-25T12:50:46.115Z,13.87
2022-08-25T12:53:25.075Z,13.60
2022-08-25T12:55:58.065Z,9.93
2022-08-25T12:58:58.991Z,15.53
2022-08-25T13:01:43.287Z,16.67
2022-08-25T13:04:20.372Z,13.27
2022-08-25T13:06:53.557Z,13.20
2022-08-25T13:09:40.136Z,13.50
2022-08-25T13:12:24.580Z,16.73
2022-08-25T13:14:56.384Z,13.40
2022-08-25T13:17:34.881Z,15.27
2022-08-25T13:20:31.072Z,10.53
2022-08-25T13:23:00.542Z,14.43
2022-08-25T13:25:32.209Z,11.67
2022-08-25T13:28:05.862Z,12.07
2022-08-25T13:30:37.060Z,14.97
2022-08-25T13:33:20.708Z,13.47
2022-08-25T13:36:11.725Z,10.10
2022-08-25T13:38:39.033Z,15.80
2022-08-25T13:41:09.589Z,11.63
2022-08-25T13:43:38.431Z,15.60
2022-08-25T13:46:06.494Z,13.90
2022-08-25T13:48:39.227Z,14.03
2022-08-25T13:51:31.207Z,9.70
2022-08-25T13:54:04.755Z,14.17
2022-08-25T13:56:43.362Z,11.07
2022-08-25T13:59:26.791Z,13.33
2022-08-25T14:01:54.913Z,11.67
2022-08-25T14:04:24.829Z,12.23
2022-08-25T14:07:12.688Z,10.10
2022-08-25T14:09:57.775Z,12.87
2022-08-25T14:12:30.682Z,12.63
2022-08-25T14:15:04.269Z,12.73
2022-08-25T14:17:40.301Z,13.30
2022-08-25T14:20:21.867Z,10.33
2022-08-25T14:22:54.699Z,15.73
2022-08-25T14:25:21.885Z,12.33
2022-08-25T14:28:08.070Z,11.77
2022-08-25T14:30:39.628Z,11.80
2022-08-25T14:33:10.769Z,12.23
2022-08-25T14:35:38.118Z,12.33
2022-08-25T14:38:09.831Z,9.90
2022-08-25T14:40:36.919Z,14.60
2022-08-25T14:43:03.884Z,10.33
2022-08-25T14:45:31.865Z,14.63
2022-08-25T14:48:03.828Z,12.13
2022-08-25T14:50:30.660Z,12.47
2022-08-25T14:52:58.257Z,13.43
2022-08-25T14:55:31.746Z,12.63
2022-08-25T14:57:59.957Z,12.77
2022-08-25T15:00:27.010Z,14.80
2022-08-25T15:02:55.127Z,14.80
2022-08-25T15:05:27.028Z,11.97
2022-08-25T15:08:14.331Z,12.67
2022-08-25T15:10:43.443Z,14.67
2022-08-25T15:13:10.878Z,11.30
2022-08-25T15:15:52.564Z,12.10
2022-08-25T15:18:20.922Z,11.17
2022-08-25T15:20:50.196Z,12.57
2022-08-25T15:23:18.578Z,13.40
2022-08-25T15:25:52.784Z,12.23
2022-08-25T15:28:21.889Z,10.37
2022-08-25T15:30:49.858Z,13.70
2022-08-25T15:33:17.380Z,18.97
2022-08-25T15:35:45.163Z,13.63
2022-08-25T15:38:12.653Z,15.13
2022-08-25T15:40:39.860Z,12.83
2022-08-25T15:43:07.319Z,16.33
2022-08-25T15:45:38.529Z,15.87
2022-08-25T15:48:06.881Z,13.27
2022-08-25T15:50:37.102Z,19.23
2022-08-25T15:53:06.011Z,16.20
2022-08-25T15:55:39.593Z,17.53
2022-08-25T15:58:07.109Z,18.40
2022-08-25T16:00:36.398Z,17.93
2022-08-25T16:03:05.242Z,20.47
2022-08-25T16:05:48.463Z,18.73
2022-08-25T16:08:19.279Z,16.97
2022-08-25T16:10:46.948Z,17.73
2022-08-25T16:13:14.452Z,15.43
2022-08-25T16:15:46.241Z,16.80
2022-08-25T16:18:13.056Z,14.87
2022-08-25T16:20:44.774Z,19.87
2022-08-25T16:23:12.505Z,15.47
2022-08-25T16:25:44.439Z,19.33
2022-08-25T16:28:15.694Z,16.60
2022-08-25T16:30:52.655Z,15.97
2022-08-25T16:33:21.253Z,18.27
2022-08-25T16:35:49.335Z,14.57
2022-08-25T16:38:16.428Z,16.17
2022-08-25T16:40:43.685Z,13.70
2022-08-25T16:43:11.663Z,17.03
2022-08-25T16:45:38.676Z,20.17
2022-08-25T16:48:06.447Z,18.27
2022-08-25T16:50:34.690Z,23.20
2022-08-25T16:53:23.775Z,19.73
2022-08-25T16:56:00.938Z,19.77
2022-08-25T16:58:27.834Z,12.80
2022-08-25T17:01:14.065Z,14.67
2022-08-25T17:03:44.109Z,21.90
2022-08-25T17:06:14.128Z,14.23
2022-08-25T17:08:42.359Z,18.73
2022-08-25T17:11:14.065Z,17.50
2022-08-25T17:13:44.791Z,15.20
2022-08-25T17:16:14.668Z,16.53
2022-08-25T17:18:42.618Z,17.17
2022-08-25T17:21:16.148Z,19.37
2022-08-25T17:23:51.276Z,16.67
2022-08-25T17:26:18.362Z,20.83
2022-08-25T17:28:45.605Z,16.07
2022-08-25T17:31:14.497Z,12.43
2022-08-25T17:33:42.235Z,16.07
2022-08-25T17:36:13.081Z,21.13
2022-08-25T17:38:44.318Z,20.03
2022-08-25T17:41:11.869Z,19.80
2022-08-25T17:43:41.133Z,19.97
2022-08-25T17:46:08.479Z,18.37
2022-08-25T17:48:36.391Z,15.87
2022-08-25T17:51:04.857Z,19.90
2022-08-25T17:53:32.439Z,16.53
2022-08-25T17:56:03.423Z,18.30
2022-08-25T17:58:31.171Z,20.63
2022-08-25T18:00:58.301Z,20.20
2022-08-25T18:03:26.353Z,19.77
2022-08-25T18:05:53.269Z,16.60
2022-08-25T18:08:20.164Z,14.27
2022-08-25T18:10:59.012Z,16.93
2022-08-25T18:13:26.763Z,19.07
2022-08-25T18:15:55.292Z,16.60
2022-08-25T18:18:24.115Z,16.63
2022-08-25T18:20:51.448Z,17.37
2022-08-25T18:23:19.990Z,18.90
2022-08-25T18:25:49.211Z,16.40
2022-08-25T18:28:16.537Z,14.60
2022-08-25T18:30:43.799Z,16.20
2022-08-25T18:33:11.696Z,12.23
2022-08-25T18:35:38.703Z,14.60
2022-08-25T18:38:25.389Z,13.80
2022-08-25T18:41:00.870Z,17.20
2022-08-25T18:43:31.310Z,16.27
2022-08-25T18:46:04.250Z,17.53
2022-08-25T18:48:32.210Z,18.13
2022-08-25T18:51:00.802Z,12.50
2022-08-25T18:53:30.573Z,12.70
2022-08-25T18:56:05.339Z,16.77
2022-08-25T18:58:32.585Z,15.83
2022-08-25T19:01:00.824Z,12.60
2022-08-25T19:03:28.456Z,14.30
2022-08-25T19:05:57.864Z,13.37
2022-08-25T19:08:25.378Z,13.03
2022-08-25T19:10:53.582Z,15.50
2022-08-25T19:13:22.633Z,12.47
2022-08-25T19:15:52.452Z,12.10
2022-08-25T19:18:27.704Z,12.20
2022-08-25T19:20:57.619Z,16.83
2022-08-25T19:23:26.220Z,13.63
2022-08-25T19:25:53.103Z,13.93
2022-08-25T19:28:19.975Z,12.93
2022-08-25T19:30:50.667Z,14.77
2022-08-25T19:33:31.368Z,13.03
2022-08-25T19:36:08.740Z,13.97
2022-08-25T19:38:36.926Z,12.63
2022-08-25T19:41:13.846Z,13.33
2022-08-25T19:43:55.677Z,14.80
2022-08-25T19:46:32.800Z,12.63
2022-08-25T19:49:14.245Z,13.50
2022-08-25T19:51:44.694Z,10.27
2022-08-25T19:54:14.165Z,15.87
2022-08-25T19:56:43.680Z,15.10
2022-08-25T19:59:22.801Z,10.53
2022-08-25T20:01:49.824Z,13.03
2022-08-25T20:04:16.797Z,12.67
2022-08-25T20:06:43.760Z,13.03
2022-08-25T20:09:35.685Z,11.23
2022-08-25T20:12:02.833Z,11.37
2022-08-25T20:14:29.693Z,15.30
2022-08-25T20:16:56.566Z,12.80
2022-08-25T20:19:23.877Z,16.13
2022-08-25T20:21:50.738Z,15.30
2022-08-25T20:24:36.257Z,12.40
2022-08-25T20:27:03.804Z,14.57
2022-08-25T20:29:31.721Z,15.30
2022-08-25T20:31:59.662Z,12.67
2022-08-25T20:34:28.860Z,14.10
2022-08-25T20:36:56.265Z,14.30
2022-08-25T20:39:24.603Z,17.20
2022-08-25T20:41:52.075Z,14.27
2022-08-25T20:44:19.322Z,13.67
2022-08-25T20:46:51.512Z,12.10
2022-08-25T20:49:20.170Z,15.40
2022-08-25T20:51:47.092Z,15.03
2022-08-25T20:54:17.716Z,14.83
2022-08-25T20:56:44.862Z,12.87
2022-08-25T20:59:11.838Z,15.37
2022-08-25T21:01:40.549Z,13.53
2022-08-25T21:04:10.462Z,19.07
2022-08-25T21:06:41.572Z,14.83
2022-08-25T21:09:14.372Z,12.27
2022-08-25T21:11:44.039Z,16.23
2022-08-25T21:14:13.332Z,12.30
2022-08-25T21:16:41.577Z,15.50
2022-08-25T21:19:10.929Z,13.00
2022-08-25T21:21:38.732Z,14.53
2022-08-25T21:24:09.769Z,13.20
2022-08-25T21:26:48.934Z,14.83
2022-08-25T21:29:16.980Z,10.70
2022-08-25T21:31:43.829Z,13.00
2022-08-25T21:34:11.774Z,13.30
2022-08-25T21:36:39.655Z,13.90
2022-08-25T21:39:07.546Z,17.57
2022-08-25T21:41:37.010Z,15.07
2022-08-25T21:44:04.423Z,14.37
2022-08-25T21:46:33.769Z,12.47
2022-08-25T21:49:05.903Z,15.13
2022-08-25T21:51:40.822Z,13.33
2022-08-25T21:54:10.998Z,14.87
2022-08-25T21:56:42.309Z,15.23
2022-08-25T21:59:13.452Z,12.43
2022-08-25T22:01:41.824Z,17.07
2022-08-25T22:04:10.452Z,18.03
2022-08-25T22:06:38.942Z,16.87
2022-08-25T22:09:07.598Z,17.33
2022-08-25T22:11:36.189Z,17.33
2022-08-25T22:14:05.500Z,17.20
2022-08-25T22:16:34.994Z,19.03
2022-08-25T22:19:03.518Z,14.77
2022-08-25T22:21:31.972Z,13.30
2022-08-25T22:24:00.177Z,16.03
2022-08-25T22:26:29.235Z,18.80
2022-08-25T22:28:58.216Z,12.43
2022-08-25T22:31:26.021Z,13.27
2022-08-25T22:33:53.602Z,17.03
2022-08-25T22:36:30.280Z,20.10
2022-08-25T22:38:58.063Z,14.90
2022-08-25T22:41:28.077Z,17.23
2022-08-25T22:43:56.644Z,16.23
2022-08-25T22:46:26.593Z,16.77
2022-08-25T22:48:55.905Z,15.73
2022-08-25T22:51:26.547Z,15.60
2022-08-25T22:53:54.715Z,19.10
2022-08-25T22:56:30.852Z,20.00
2022-08-25T22:59:06.295Z,17.87
2022-08-25T23:01:34.211Z,17.00
2022-08-25T23:04:03.118Z,17.03
2022-08-25T23:06:30.234Z,18.03
2022-08-25T23:08:57.478Z,15.20
2022-08-25T23:11:25.174Z,15.00
2022-08-25T23:13:56.182Z,17.20
2022-08-25T23:16:23.680Z,15.90
2022-08-25T23:18:51.930Z,15.87
2022-08-25T23:21:40.876Z,17.03
2022-08-25T23:24:14.358Z,16.37
2022-08-25T23:26:56.227Z,16.10
2022-08-25T23:29:23.430Z,16.27
2022-08-25T23:31:53.569Z,18.57
2022-08-25T23:34:22.152Z,18.97
2022-08-25T23:36:49.260Z,16.67
2022-08-25T23:39:16.378Z,17.10
2022-08-25T23:41:43.771Z,14.03
2022-08-25T23:44:11.762Z,16.90
2022-08-25T23:46:44.505Z,16.47
2022-08-25T23:49:11.656Z,14.03
2022-08-25T23:51:38.675Z,14.97
2022-08-25T23:54:10.701Z,15.70
2022-08-25T23:56:42.261Z,16.63
2022-08-25T23:59:11.796Z,15.17
